Time;durP1;ratioP1;P1;durP2;ratioP2;P2;SDS_P1;SDS_P2;PMS_P1;PMS_P2;Temp;Humidity;BMP_temperature;BMP_pressure;BME280_temperature;BME280_humidity;BME280_pressure;Samples;Min_cycle;Max_cycle;Signal;HPM_P1;HPM_P2
2023/01/04 00:00:09;;;;;;;6.85;2.75;;;8.00;99.90;;;;;;5075967;28;20040;-66
2023/01/04 00:02:35;;;;;;;8.90;2.50;;;8.00;99.90;;;;;;5077739;28;20090;-65
2023/01/04 00:05:01;;;;;;;6.75;2.05;;;8.10;99.90;;;;;;5075968;28;20427;-64
2023/01/04 00:07:29;;;;;;;6.35;2.05;;;8.10;99.90;;;;;;5063796;28;20043;-65
2023/01/04 00:09:55;;;;;;;9.65;2.22;;;8.10;99.90;;;;;;5083869;28;20390;-65
2023/01/04 00:12:21;;;;;;;6.82;2.17;;;8.10;99.90;;;;;;5082604;28;20115;-64
2023/01/04 00:14:47;;;;;;;7.57;2.38;;;8.10;99.90;;;;;;5082247;28;20080;-64
2023/01/04 00:17:13;;;;;;;9.35;3.38;;;8.10;99.90;;;;;;5086869;28;20072;-65
2023/01/04 00:19:39;;;;;;;9.73;2.17;;;8.10;99.90;;;;;;5079253;28;20044;-65
2023/01/04 00:22:05;;;;;;;8.13;1.90;;;8.10;99.90;;;;;;5082411;28;20169;-65
2023/01/04 00:24:30;;;;;;;11.55;2.25;;;8.10;99.90;;;;;;5064361;28;20044;-65
2023/01/04 00:26:56;;;;;;;6.30;2.10;;;8.10;99.90;;;;;;5081587;28;20039;-65
2023/01/04 00:29:22;;;;;;;6.55;2.78;;;8.10;99.90;;;;;;5081599;28;20479;-65
2023/01/04 00:31:48;;;;;;;8.18;2.67;;;8.10;99.90;;;;;;5063262;28;20094;-65
2023/01/04 00:34:15;;;;;;;5.75;2.33;;;8.10;99.90;;;;;;5082521;28;20036;-64
2023/01/04 00:36:41;;;;;;;10.45;2.60;;;8.10;99.90;;;;;;5066216;28;20110;-65
2023/01/04 00:39:11;;;;;;;6.88;2.33;;;8.00;99.90;;;;;;5064656;28;20120;-65
2023/01/04 00:41:45;;;;;;;10.50;2.53;;;8.00;99.90;;;;;;5064254;28;20048;-65
2023/01/04 00:44:11;;;;;;;;;;;7.90;99.90;;;;;;5082738;28;20072;-65
2023/01/04 00:46:38;;;;;;;10.13;2.50;;;7.90;99.90;;;;;;5075090;28;19997;-65
2023/01/04 00:49:05;;;;;;;6.30;2.20;;;7.90;99.90;;;;;;5082208;28;20058;-66
2023/01/04 00:51:32;;;;;;;6.05;2.45;;;7.90;99.90;;;;;;5061990;28;20090;-66
2023/01/04 00:54:03;;;;;;;9.95;3.17;;;7.80;99.90;;;;;;5066223;28;20350;-66
2023/01/04 00:56:30;;;;;;;8.52;2.50;;;7.80;99.90;;;;;;5077559;28;20043;-66
2023/01/04 00:58:57;;;;;;;6.40;2.05;;;7.80;99.90;;;;;;5061889;28;20048;-66
2023/01/04 01:01:24;;;;;;;8.38;2.53;;;7.70;99.90;;;;;;5083549;28;20063;-66
2023/01/04 01:03:55;;;;;;;10.43;2.42;;;7.80;99.90;;;;;;5064836;28;20713;-67
2023/01/04 01:06:21;;;;;;;6.80;2.67;;;7.80;99.90;;;;;;5080944;28;20028;-66
2023/01/04 01:08:47;;;;;;;7.68;2.08;;;7.80;99.90;;;;;;5067523;28;20441;-67
2023/01/04 01:11:13;;;;;;;9.57;2.58;;;7.80;99.90;;;;;;5064362;28;20078;-66
2023/01/04 01:13:39;;;;;;;9.60;2.30;;;7.80;99.90;;;;;;5065257;28;20112;-66
2023/01/04 01:16:09;;;;;;;10.77;2.70;;;7.80;99.90;;;;;;5067532;28;20131;-66
2023/01/04 01:18:37;;;;;;;7.35;2.42;;;7.80;99.90;;;;;;5066647;28;20055;-66
2023/01/04 01:21:21;;;;;;;9.43;2.40;;;7.80;99.90;;;;;;5064358;28;20053;-67
2023/01/04 01:23:47;;;;;;;6.65;2.45;;;7.80;99.90;;;;;;5062805;28;20124;-67
2023/01/04 01:26:15;;;;;;;8.90;2.45;;;7.80;99.90;;;;;;5060363;28;20047;-66
2023/01/04 01:28:41;;;;;;;5.90;2.08;;;7.80;99.90;;;;;;5081333;28;20024;-67
2023/01/04 01:31:13;;;;;;;6.93;2.83;;;7.80;99.90;;;;;;5063163;28;20037;-66
2023/01/04 01:33:40;;;;;;;8.63;2.10;;;7.80;99.90;;;;;;5049698;28;20055;-67
2023/01/04 01:36:08;;;;;;;8.27;2.30;;;7.80;99.90;;;;;;5067430;28;20172;-66
2023/01/04 01:38:35;;;;;;;6.13;2.50;;;7.80;99.90;;;;;;5082305;28;20040;-66
2023/01/04 01:41:01;;;;;;;6.68;2.90;;;7.80;99.90;;;;;;5080054;28;20036;-65
2023/01/04 01:43:45;;;;;;;7.40;2.15;;;7.80;99.90;;;;;;5062674;28;20451;-66
2023/01/04 01:46:12;;;;;;;6.93;2.03;;;7.80;99.90;;;;;;5061736;28;20119;-65
2023/01/04 01:48:39;;;;;;;7.65;2.25;;;7.80;99.90;;;;;;5073881;28;20082;-65
2023/01/04 01:51:05;;;;;;;10.02;2.50;;;7.80;99.90;;;;;;5048966;28;20036;-66
2023/01/04 01:53:36;;;;;;;8.52;2.75;;;7.80;99.90;;;;;;5080277;28;20124;-66
2023/01/04 01:56:04;;;;;;;7.15;2.33;;;7.90;99.90;;;;;;5061700;28;20036;-65
2023/01/04 01:58:34;;;;;;;9.75;2.33;;;7.90;99.90;;;;;;5062903;28;20561;-66
2023/01/04 02:01:01;;;;;;;5.00;2.05;;;7.80;99.90;;;;;;5080250;28;20041;-70
2023/01/04 02:03:36;;;;;;;6.55;2.17;;;7.80;99.90;;;;;;5062472;28;20041;-69
2023/01/04 02:06:05;;;;;;;5.88;2.10;;;7.90;99.90;;;;;;5085309;28;20032;-69
2023/01/04 02:08:31;;;;;;;5.68;2.38;;;7.90;99.90;;;;;;5065760;28;20043;-69
2023/01/04 02:10:57;;;;;;;7.72;2.30;;;7.90;99.90;;;;;;5068303;28;20039;-66
2023/01/04 02:14:25;;;;;;;6.60;1.92;;;7.90;99.90;;;;;;5073222;28;20407;-67
2023/01/04 02:16:36;;;;;;;6.13;2.05;;;7.90;99.90;;;;;;5067934;28;20454;-66
2023/01/04 02:19:34;;;;;;;5.75;2.50;;;8.00;99.90;;;;;;5079517;28;20036;-66
2023/01/04 02:22:06;;;;;;;5.03;1.73;;;8.00;99.90;;;;;;5042582;28;20128;-66
2023/01/04 02:25:06;;;;;;;5.35;1.60;;;7.90;99.90;;;;;;5060002;28;20040;-66
2023/01/04 02:27:42;;;;;;;4.72;1.63;;;8.00;99.90;;;;;;5024323;28;20045;-66
2023/01/04 02:30:38;;;;;;;4.03;1.67;;;8.00;99.90;;;;;;5063724;28;20083;-66
2023/01/04 02:33:09;;;;;;;7.10;1.80;;;8.00;99.90;;;;;;5078988;28;20085;-67
2023/01/04 02:35:54;;;;;;;5.32;1.88;;;8.10;99.90;;;;;;5063180;28;20556;-66
2023/01/04 02:38:32;;;;;;;5.80;1.52;;;8.10;99.90;;;;;;5084446;28;20119;-66
2023/01/04 02:41:23;;;;;;;5.07;1.60;;;8.10;99.90;;;;;;5057346;28;20047;-66
2023/01/04 02:47:10;;;;;;;3.03;1.50;;;8.10;99.90;;;;;;5067934;28;20044;-65
2023/01/04 02:52:22;;;;;;;5.50;1.63;;;8.20;99.90;;;;;;5077227;28;20072;-65
2023/01/04 02:54:52;;;;;;;4.35;1.80;;;8.20;99.90;;;;;;5077462;28;20052;-66
2023/01/04 02:57:37;;;;;;;4.43;1.45;;;8.20;99.90;;;;;;5056296;28;20129;-66
2023/01/04 03:00:09;;;;;;;3.00;1.33;;;8.20;99.90;;;;;;5067952;28;20052;-66
2023/01/04 03:09:03;;;;;;;4.90;1.75;;;8.30;99.90;;;;;;5066542;28;20042;-66
2023/01/04 03:14:31;;;;;;;4.03;1.30;;;8.40;99.90;;;;;;5061595;28;20051;-66
2023/01/04 03:16:59;;;;;;;3.20;1.20;;;8.40;99.90;;;;;;5059685;28;20047;-66
2023/01/04 03:36:22;;;;;;;4.85;1.88;;;8.80;99.90;;;;;;5057906;28;20090;-65
2023/01/04 03:48:33;;;;;;;3.58;1.80;;;8.90;99.90;;;;;;5074812;28;19920;-65
2023/01/04 03:51:13;;;;;;;3.25;1.65;;;9.00;99.90;;;;;;5067706;28;20040;-65
2023/01/04 03:53:46;;;;;;;4.35;1.80;;;9.00;99.90;;;;;;5058899;28;20048;-65
2023/01/04 03:56:15;;;;;;;2.85;1.52;;;9.10;99.90;;;;;;5064313;28;20118;-65
2023/01/04 03:58:41;;;;;;;3.13;2.10;;;9.10;99.90;;;;;;5057856;28;20047;-64
2023/01/04 04:01:07;;;;;;;2.97;1.88;;;9.20;99.90;;;;;;5077409;28;20039;-65
2023/01/04 04:09:02;;;;;;;3.38;1.80;;;9.30;99.90;;;;;;5058914;28;20051;-65
2023/01/04 04:11:30;;;;;;;2.60;1.40;;;9.30;99.90;;;;;;5061444;28;20044;-64
2023/01/04 04:13:57;;;;;;;1.77;1.33;;;9.30;99.90;;;;;;5056376;28;20041;-64
2023/01/04 04:16:23;;;;;;;1.75;1.63;;;9.40;99.90;;;;;;5075943;28;20036;-64
2023/01/04 04:18:49;;;;;;;3.33;2.40;;;9.40;99.90;;;;;;5059133;28;20052;-65
2023/01/04 04:21:15;;;;;;;2.28;2.00;;;9.40;99.90;;;;;;5081771;28;20043;-66
2023/01/04 04:23:41;;;;;;;3.58;2.17;;;9.50;99.90;;;;;;5078352;28;20040;-64
2023/01/04 04:26:07;;;;;;;3.25;2.40;;;9.50;99.90;;;;;;5062412;28;20032;-65
2023/01/04 04:28:32;;;;;;;6.50;2.30;;;9.50;99.90;;;;;;5079297;28;20468;-65
2023/01/04 04:30:58;;;;;;;3.47;1.92;;;9.60;99.90;;;;;;5082726;28;20043;-64
2023/01/04 04:33:24;;;;;;;5.45;2.55;;;9.60;99.90;;;;;;5078599;28;20506;-64
2023/01/04 04:35:53;;;;;;;3.80;2.55;;;9.70;99.90;;;;;;5074399;28;20056;-65
2023/01/04 04:38:20;;;;;;;5.32;2.90;;;9.60;99.90;;;;;;5060247;28;20384;-64
2023/01/04 04:43:32;;;;;;;3.45;2.63;;;9.70;99.90;;;;;;5080023;28;20602;-64
2023/01/04 04:45:57;;;;;;;3.40;2.80;;;9.70;99.90;;;;;;5077264;28;20036;-65
2023/01/04 04:48:23;;;;;;;6.25;2.70;;;9.70;99.90;;;;;;5079901;28;20496;-64
2023/01/04 04:50:49;;;;;;;3.78;2.97;;;9.80;99.90;;;;;;5078693;28;20040;-64
2023/01/04 04:53:15;;;;;;;4.97;3.05;;;9.80;99.90;;;;;;5074275;28;20149;-65
2023/01/04 04:55:41;;;;;;;4.85;3.30;;;9.80;99.90;;;;;;5080500;28;20056;-65
2023/01/04 04:58:07;;;;;;;4.20;3.65;;;9.80;99.90;;;;;;5067080;28;20389;-64
2023/01/04 05:00:32;;;;;;;4.25;3.58;;;9.80;99.90;;;;;;5086455;28;20059;-63
2023/01/04 05:02:59;;;;;;;6.28;3.53;;;9.90;99.90;;;;;;5082202;28;20135;-62
2023/01/04 05:05:26;;;;;;;5.05;4.00;;;9.90;99.90;;;;;;5080960;28;20040;-64
2023/01/04 05:07:51;;;;;;;4.60;4.05;;;9.90;99.90;;;;;;5066242;28;20047;-64
2023/01/04 05:10:17;;;;;;;4.43;3.63;;;10.00;99.90;;;;;;5079046;28;20032;-64
2023/01/04 05:12:58;;;;;;;5.53;3.78;;;10.00;99.90;;;;;;5081544;28;20043;-65
2023/01/04 05:15:42;;;;;;;4.97;4.03;;;10.00;99.90;;;;;;5062136;28;20052;-65
2023/01/04 05:18:10;;;;;;;4.85;4.35;;;10.00;99.90;;;;;;5084135;28;20107;-65
2023/01/04 05:20:37;;;;;;;6.05;5.47;;;10.00;99.90;;;;;;5063571;28;20055;-65
2023/01/04 05:23:03;;;;;;;5.45;4.75;;;10.00;99.90;;;;;;5078815;28;20041;-65
2023/01/04 05:25:29;;;;;;;7.22;5.38;;;10.10;99.90;;;;;;5080581;28;20040;-65
2023/01/04 05:27:55;;;;;;;6.88;5.78;;;10.10;99.90;;;;;;5084308;28;20043;-65
2023/01/04 05:33:06;;;;;;;8.07;6.03;;;10.20;99.90;;;;;;5079870;28;20118;-64
2023/01/04 05:35:32;;;;;;;7.35;6.10;;;10.20;99.90;;;;;;5084371;28;20345;-64
2023/01/04 05:37:58;;;;;;;6.70;5.93;;;10.20;99.90;;;;;;5081560;28;20496;-64
2023/01/04 05:40:25;;;;;;;8.95;5.13;;;10.20;99.90;;;;;;5065950;28;20543;-64
2023/01/04 05:42:50;;;;;;;8.70;6.10;;;10.20;99.90;;;;;;5075826;28;20074;-65
2023/01/04 05:45:17;;;;;;;7.80;6.10;;;10.30;99.90;;;;;;5080171;28;20068;-64
2023/01/04 05:47:42;;;;;;;7.70;5.80;;;10.30;99.90;;;;;;5081397;28;20540;-64
2023/01/04 05:50:09;;;;;;;9.65;6.85;;;10.30;99.90;;;;;;5083446;28;20111;-64
2023/01/04 05:52:35;;;;;;;7.82;5.68;;;10.30;99.90;;;;;;5075489;28;20044;-64
2023/01/04 05:55:01;;;;;;;8.93;6.57;;;10.30;99.90;;;;;;5082024;28;20421;-63
2023/01/04 05:57:27;;;;;;;7.82;5.95;;;10.40;99.90;;;;;;5080682;28;20124;-63
2023/01/04 05:59:53;;;;;;;10.40;6.25;;;10.40;99.90;;;;;;5076678;28;20081;-64
2023/01/04 06:02:23;;;;;;;8.63;5.60;;;10.40;99.90;;;;;;5083546;28;20036;-63
2023/01/04 06:04:49;;;;;;;6.82;5.65;;;10.40;99.90;;;;;;5079411;28;20055;-64
2023/01/04 06:07:16;;;;;;;6.57;5.47;;;10.40;99.90;;;;;;5079931;28;20035;-65
2023/01/04 06:09:42;;;;;;;11.40;6.32;;;10.40;99.90;;;;;;5081431;28;20518;-64
2023/01/04 06:12:08;;;;;;;7.57;6.15;;;10.40;99.90;;;;;;5081050;28;20032;-64
2023/01/04 06:14:33;;;;;;;9.93;5.95;;;10.50;99.90;;;;;;5081766;28;20036;-63
2023/01/04 06:16:59;;;;;;;5.85;4.53;;;10.50;99.90;;;;;;5079559;28;20036;-65
2023/01/04 06:19:25;;;;;;;6.75;4.28;;;10.50;99.90;;;;;;5073915;28;20036;-64
2023/01/04 06:21:51;;;;;;;9.50;4.40;;;10.50;99.90;;;;;;5075201;28;20044;-63
2023/01/04 06:24:17;;;;;;;5.75;4.10;;;10.50;99.90;;;;;;5083338;28;20085;-65
2023/01/04 06:26:44;;;;;;;6.25;4.15;;;10.50;99.90;;;;;;5083519;28;20464;-65
2023/01/04 06:29:10;;;;;;;7.38;4.03;;;10.50;99.90;;;;;;5076665;28;20111;-64
2023/01/04 06:31:35;;;;;;;4.95;4.32;;;10.60;99.90;;;;;;5079658;28;20040;-64
2023/01/04 06:34:02;;;;;;;5.18;3.70;;;10.60;99.90;;;;;;5059669;28;20125;-63
2023/01/04 06:36:28;;;;;;;7.13;4.43;;;10.60;99.90;;;;;;5082461;28;20036;-64
2023/01/04 06:38:56;;;;;;;6.68;3.65;;;10.60;99.90;;;;;;5059910;28;20437;-64
2023/01/04 06:41:22;;;;;;;8.65;4.00;;;10.60;99.90;;;;;;5077396;28;20043;-64
2023/01/04 06:43:48;;;;;;;3.65;2.90;;;10.60;99.90;;;;;;5083749;28;20040;-63
2023/01/04 06:46:14;;;;;;;3.55;2.92;;;10.70;99.90;;;;;;5084027;28;20442;-65
2023/01/04 06:48:40;;;;;;;4.97;2.50;;;10.70;99.90;;;;;;5080583;28;20118;-63
2023/01/04 06:51:06;;;;;;;6.68;2.72;;;10.70;99.90;;;;;;5081771;28;20044;-64
2023/01/04 06:53:32;;;;;;;3.65;2.40;;;10.70;99.90;;;;;;5081975;28;20036;-64
2023/01/04 06:55:58;;;;;;;2.47;2.28;;;10.70;99.90;;;;;;5086136;28;20074;-65
2023/01/04 06:58:24;;;;;;;3.55;1.80;;;10.60;99.90;;;;;;5084636;28;20093;-65
2023/01/04 07:00:53;;;;;;;3.75;1.90;;;10.70;99.90;;;;;;5081304;28;20236;-65
2023/01/04 07:03:20;;;;;;;2.10;1.77;;;10.70;99.90;;;;;;5063702;28;20056;-65
2023/01/04 07:05:45;;;;;;;2.03;1.77;;;10.60;99.90;;;;;;5081253;28;20426;-65
2023/01/04 07:08:13;;;;;;;2.30;1.98;;;10.70;99.90;;;;;;5082105;28;20020;-64
2023/01/04 07:10:39;;;;;;;2.28;1.60;;;10.70;99.90;;;;;;5077581;28;20046;-64
2023/01/04 07:13:07;;;;;;;2.60;2.22;;;10.70;99.90;;;;;;5086425;28;20106;-65
2023/01/04 07:15:33;;;;;;;2.70;2.33;;;10.70;99.90;;;;;;5076889;28;20071;-65
2023/01/04 07:17:58;;;;;;;3.72;2.10;;;10.70;99.90;;;;;;5084004;28;20075;-64
2023/01/04 07:20:24;;;;;;;2.75;2.22;;;10.70;99.90;;;;;;5086039;28;20483;-64
2023/01/04 07:22:50;;;;;;;3.05;2.50;;;10.70;99.90;;;;;;5083747;28;20035;-65
2023/01/04 07:25:16;;;;;;;3.13;2.70;;;10.70;99.90;;;;;;5084866;28;20477;-64
2023/01/04 07:27:42;;;;;;;4.13;2.50;;;10.70;99.90;;;;;;5082349;28;20137;-65
2023/01/04 07:30:08;;;;;;;3.67;2.83;;;10.70;99.90;;;;;;5084715;28;20044;-65
2023/01/04 07:32:34;;;;;;;3.42;2.53;;;10.70;99.90;;;;;;5048308;28;20101;-65
2023/01/04 07:35:00;;;;;;;2.55;2.30;;;10.70;99.90;;;;;;5046824;28;20048;-64
2023/01/04 07:37:26;;;;;;;2.80;2.50;;;10.70;99.90;;;;;;5082077;28;20600;-64
2023/01/04 07:39:51;;;;;;;2.72;2.45;;;10.70;99.90;;;;;;5085039;28;20040;-65
2023/01/04 07:42:19;;;;;;;2.75;2.30;;;10.70;99.90;;;;;;5063849;28;20542;-64
2023/01/04 07:44:45;;;;;;;3.47;2.90;;;10.70;99.90;;;;;;5065080;28;20044;-64
2023/01/04 07:47:11;;;;;;;4.10;2.85;;;10.80;99.90;;;;;;5082953;28;20404;-64
2023/01/04 07:49:37;;;;;;;4.95;2.63;;;10.70;99.90;;;;;;5081361;28;20408;-65
2023/01/04 07:52:03;;;;;;;4.57;3.35;;;10.70;99.90;;;;;;5063882;28;20051;-65
2023/01/04 07:54:29;;;;;;;3.47;2.60;;;10.70;99.90;;;;;;5065667;28;20071;-64
2023/01/04 07:56:55;;;;;;;4.82;2.83;;;10.70;99.90;;;;;;5079347;28;20109;-64
2023/01/04 07:59:21;;;;;;;4.28;3.03;;;10.70;99.90;;;;;;5084404;28;20078;-64
2023/01/04 08:01:48;;;;;;;6.53;3.53;;;10.70;99.90;;;;;;5084010;28;20506;-64
2023/01/04 08:04:15;;;;;;;4.68;3.60;;;10.80;99.90;;;;;;5084349;28;20319;-64
2023/01/04 08:06:42;;;;;;;4.90;3.80;;;10.70;99.90;;;;;;5082317;28;20089;-64
2023/01/04 08:09:10;;;;;;;5.32;3.85;;;10.80;99.90;;;;;;5082847;28;20127;-63
2023/01/04 08:11:36;;;;;;;5.22;3.60;;;10.70;99.90;;;;;;5058165;28;20050;-63
2023/01/04 08:14:02;;;;;;;7.15;4.63;;;10.80;99.90;;;;;;5082491;28;20048;-64
2023/01/04 08:16:31;;;;;;;7.13;4.35;;;10.80;99.90;;;;;;5063887;28;20039;-64
2023/01/04 08:18:59;;;;;;;4.88;4.30;;;10.80;99.90;;;;;;5084147;28;20051;-65
2023/01/04 08:21:26;;;;;;;6.88;4.32;;;10.80;99.90;;;;;;5069990;28;21376;-64
2023/01/04 08:23:52;;;;;;;4.85;3.97;;;10.80;99.90;;;;;;5062639;28;20214;-64
2023/01/04 08:26:20;;;;;;;7.78;4.82;;;10.80;99.90;;;;;;5082699;28;20051;-65
2023/01/04 08:28:46;;;;;;;7.55;4.80;;;10.80;99.90;;;;;;5085188;28;20044;-65
2023/01/04 08:31:15;;;;;;;5.55;4.07;;;10.80;99.90;;;;;;5063205;28;20071;-64
2023/01/04 08:33:41;;;;;;;9.93;4.55;;;10.90;99.90;;;;;;5075183;28;20048;-65
2023/01/04 08:36:10;;;;;;;7.05;4.68;;;10.80;99.90;;;;;;5078782;28;20090;-63
2023/01/04 08:38:36;;;;;;;7.78;4.78;;;10.90;99.90;;;;;;5082310;28;20055;-64
2023/01/04 08:41:02;;;;;;;7.38;4.43;;;10.90;99.90;;;;;;5078028;28;20423;-65
2023/01/04 08:43:28;;;;;;;6.85;4.78;;;10.90;99.90;;;;;;5083343;28;20115;-64
2023/01/04 08:45:54;;;;;;;7.15;5.82;;;10.90;99.90;;;;;;5081963;28;20505;-66
2023/01/04 08:48:19;;;;;;;8.80;4.85;;;10.90;99.90;;;;;;5081215;28;20024;-65
2023/01/04 08:50:45;;;;;;;7.88;5.38;;;10.90;99.90;;;;;;5087488;28;20131;-65
2023/01/04 08:53:11;;;;;;;8.32;4.80;;;10.90;99.90;;;;;;5078987;28;20036;-65
2023/01/04 08:55:37;;;;;;;7.95;3.50;;;10.90;99.90;;;;;;5083078;28;20047;-65
2023/01/04 08:58:04;;;;;;;5.10;2.95;;;10.90;99.90;;;;;;5065291;28;20070;-64
2023/01/04 09:00:29;;;;;;;6.75;3.13;;;11.00;99.90;;;;;;5065908;28;20040;-64
2023/01/04 09:02:55;;;;;;;4.80;3.15;;;10.90;99.90;;;;;;5061405;28;20097;-66
2023/01/04 09:05:21;;;;;;;3.95;3.35;;;10.90;99.90;;;;;;5062842;28;20076;-65
2023/01/04 09:07:47;;;;;;;5.28;3.67;;;10.90;99.90;;;;;;5084528;28;20472;-65
2023/01/04 09:10:13;;;;;;;5.55;2.70;;;11.00;99.90;;;;;;5078274;28;20033;-65
2023/01/04 09:12:39;;;;;;;3.92;2.75;;;11.00;99.90;;;;;;5063212;28;20051;-65
2023/01/04 09:15:05;;;;;;;3.63;2.30;;;11.00;99.90;;;;;;5060136;28;20160;-65
2023/01/04 09:17:31;;;;;;;6.35;2.30;;;11.00;99.90;;;;;;5066071;28;20123;-65
2023/01/04 09:19:56;;;;;;;3.63;1.73;;;11.00;99.90;;;;;;5081473;28;20127;-66
2023/01/04 09:22:22;;;;;;;4.07;2.25;;;11.00;99.90;;;;;;5077401;28;20518;-64
2023/01/04 09:24:48;;;;;;;4.28;2.08;;;11.00;99.90;;;;;;5084959;28;20050;-66
2023/01/04 09:27:13;;;;;;;3.90;1.98;;;11.10;99.90;;;;;;5055874;28;20479;-66
2023/01/04 09:29:40;;;;;;;4.25;1.50;;;11.00;99.90;;;;;;5079124;28;20071;-66
2023/01/04 09:32:06;;;;;;;2.00;1.60;;;11.00;99.90;;;;;;5078807;28;20059;-65
2023/01/04 09:34:31;;;;;;;2.05;1.30;;;11.00;99.90;;;;;;5084232;28;20036;-64
2023/01/04 09:36:57;;;;;;;4.05;1.17;;;11.10;99.90;;;;;;5084323;28;20192;-66
2023/01/04 09:39:25;;;;;;;2.95;1.23;;;11.00;99.90;;;;;;5063645;28;20547;-65
2023/01/04 09:42:02;;;;;;;2.83;1.55;;;11.00;99.90;;;;;;5060242;28;20052;-65
2023/01/04 09:44:28;;;;;;;3.15;1.35;;;11.10;99.90;;;;;;5064620;28;20040;-69
2023/01/04 09:47:06;;;;;;;1.20;1.08;;;11.10;99.90;;;;;;5082248;28;20033;-65
2023/01/04 09:49:49;;;;;;;2.53;1.27;;;11.10;99.90;;;;;;5076261;28;20044;-65
2023/01/04 09:52:41;;;;;;;1.17;1.00;;;11.10;99.90;;;;;;5079068;28;20041;-65
2023/01/04 09:55:21;;;;;;;4.07;0.82;;;11.10;99.90;;;;;;5062548;28;20120;-65
2023/01/04 09:57:59;;;;;;;2.53;0.85;;;11.10;99.90;;;;;;5082231;28;20055;-65
2023/01/04 10:00:33;;;;;;;2.03;0.90;;;11.10;99.90;;;;;;5048061;28;20120;-65
2023/01/04 10:03:14;;;;;;;1.92;0.68;;;11.10;99.90;;;;;;5047917;28;20047;-66
2023/01/04 10:05:41;;;;;;;2.17;0.50;;;11.10;99.90;;;;;;5059527;28;20052;-65
2023/01/04 10:08:18;;;;;;;0.82;0.50;;;11.10;99.90;;;;;;5059962;28;20043;-66
2023/01/04 10:11:08;;;;;;;1.42;0.57;;;11.10;99.90;;;;;;5060219;28;20466;-66
2023/01/04 10:13:52;;;;;;;0.95;0.65;;;11.10;99.90;;;;;;5061633;28;20085;-66
2023/01/04 10:16:41;;;;;;;3.40;0.80;;;11.10;99.90;;;;;;5076532;28;20033;-67
2023/01/04 10:19:34;;;;;;;4.20;1.38;;;11.20;99.90;;;;;;5076334;28;20098;-66
2023/01/04 10:22:19;;;;;;;7.70;1.52;;;11.30;99.90;;;;;;5061608;28;20123;-66
2023/01/04 10:24:54;;;;;;;7.38;1.45;;;11.20;99.90;;;;;;5064012;28;20036;-66
2023/01/04 10:27:35;;;;;;;6.25;1.48;;;11.20;99.90;;;;;;5061566;28;20044;-67
2023/01/04 10:30:03;;;;;;;8.98;1.92;;;11.30;99.90;;;;;;5062344;28;20120;-66
2023/01/04 10:32:41;;;;;;;10.68;1.75;;;11.30;99.90;;;;;;5077208;28;20041;-66
2023/01/04 10:35:24;;;;;;;12.65;1.92;;;11.40;99.90;;;;;;5060600;28;20032;-67
2023/01/04 10:38:03;;;;;;;14.80;2.45;;;11.40;99.90;;;;;;5073084;28;20060;-67
2023/01/04 10:40:33;;;;;;;14.25;1.90;;;11.50;99.90;;;;;;5080142;28;20548;-66
2023/01/04 10:43:23;;;;;;;14.57;2.17;;;11.40;99.90;;;;;;5079492;28;20055;-66
2023/01/04 10:46:14;;;;;;;19.67;2.70;;;11.50;99.90;;;;;;5060326;28;20125;-66
2023/01/04 10:48:52;;;;;;;20.90;2.92;;;11.50;99.90;;;;;;5079181;28;20039;-68
2023/01/04 10:51:42;;;;;;;15.82;2.50;;;11.60;99.90;;;;;;5083317;28;20040;-67
2023/01/04 10:54:21;;;;;;;20.15;2.80;;;11.60;99.90;;;;;;5076266;28;20362;-67
2023/01/04 10:57:19;;;;;;;17.17;2.55;;;11.60;99.90;;;;;;5079871;28;20040;-67
2023/01/04 11:00:04;;;;;;;18.75;2.60;;;11.60;99.90;;;;;;5068079;28;20526;-67
2023/01/04 11:02:45;;;;;;;16.50;2.42;;;11.60;99.90;;;;;;5060999;28;20044;-67
2023/01/04 11:05:21;;;;;;;17.80;2.90;;;11.60;99.90;;;;;;5077062;28;20496;-67
2023/01/04 11:07:58;;;;;;;18.73;2.80;;;11.60;99.90;;;;;;5077639;28;20036;-68
2023/01/04 11:10:27;;;;;;;21.65;3.08;;;11.60;99.90;;;;;;5059574;28;20481;-67
2023/01/04 11:12:53;;;;;;;22.80;2.95;;;11.60;99.90;;;;;;5082372;28;20448;-67
2023/01/04 11:15:19;;;;;;;18.90;2.67;;;11.60;99.90;;;;;;5062042;28;20068;-68
2023/01/04 11:17:46;;;;;;;22.48;3.20;;;11.60;99.90;;;;;;5076946;28;20458;-66
2023/01/04 11:20:12;;;;;;;23.25;3.25;;;11.70;99.90;;;;;;5061810;28;20044;-67
2023/01/04 11:23:04;;;;;;;20.50;3.22;;;11.70;99.90;;;;;;5064785;28;20563;-67
2023/01/04 11:25:54;;;;;;;21.55;3.80;;;11.70;99.90;;;;;;5061190;28;20349;-67
2023/01/04 11:28:38;;;;;;;17.90;2.65;;;11.70;99.90;;;;;;5061571;28;20098;-67
2023/01/04 11:31:08;;;;;;;24.00;3.35;;;11.70;99.90;;;;;;5049648;28;20463;-67
2023/01/04 11:33:54;;;;;;;14.55;2.47;;;11.70;99.90;;;;;;5062226;28;20048;-66
2023/01/04 11:36:39;;;;;;;14.32;3.08;;;11.80;99.90;;;;;;5047575;28;20040;-67
2023/01/04 11:39:23;;;;;;;14.73;2.17;;;11.80;99.90;;;;;;5060898;28;20052;-66
2023/01/04 11:42:04;;;;;;;12.43;2.55;;;11.90;99.90;;;;;;5080356;28;20480;-68
2023/01/04 11:44:34;;;;;;;18.23;3.03;;;11.90;99.90;;;;;;5066779;28;20047;-68
2023/01/04 11:47:23;;;;;;;13.23;2.03;;;11.90;99.90;;;;;;5061569;28;20052;-69
2023/01/04 11:49:49;;;;;;;15.57;2.53;;;11.90;99.90;;;;;;5077829;28;20116;-69
2023/01/04 11:52:33;;;;;;;13.50;2.22;;;11.90;99.90;;;;;;5060692;28;20492;-69
2023/01/04 11:55:28;;;;;;;12.63;2.00;;;11.90;99.90;;;;;;5066318;28;20084;-70
2023/01/04 11:58:09;;;;;;;;;;;11.90;99.90;;;;;;5082333;28;20514;-69
2023/01/04 12:00:34;;;;;;;13.93;1.88;;;11.90;99.90;;;;;;5060250;28;19916;-70
2023/01/04 12:03:14;;;;;;;12.00;1.85;;;11.90;99.90;;;;;;5060203;28;20047;-69
2023/01/04 12:05:40;;;;;;;11.35;1.80;;;12.00;99.90;;;;;;5078132;28;20089;-70
2023/01/04 12:08:19;;;;;;;15.52;2.25;;;11.90;99.90;;;;;;5068874;28;20040;-70
2023/01/04 12:10:45;;;;;;;9.63;2.13;;;12.00;99.90;;;;;;5060930;28;20098;-69
2023/01/04 12:13:11;;;;;;;11.25;2.15;;;12.00;99.90;;;;;;5065538;28;20040;-69
2023/01/04 12:15:51;;;;;;;13.32;2.28;;;12.00;99.90;;;;;;5044861;28;20040;-69
2023/01/04 12:18:39;;;;;;;7.82;1.77;;;12.00;99.90;;;;;;5068946;28;20066;-69
2023/01/04 12:21:05;;;;;;;10.95;1.40;;;12.00;99.90;;;;;;5076009;28;20072;-69
2023/01/04 12:23:33;;;;;;;11.48;1.88;;;12.00;99.90;;;;;;5061570;28;20091;-69
2023/01/04 12:25:59;;;;;;;7.97;1.17;;;12.00;99.90;;;;;;5063515;28;20506;-70
2023/01/04 12:28:32;;;;;;;8.60;1.23;;;12.10;99.90;;;;;;5068295;28;20377;-70
2023/01/04 12:31:19;;;;;;;8.75;1.45;;;12.10;99.90;;;;;;5077144;28;20037;-69
2023/01/04 12:33:47;;;;;;;5.00;0.93;;;12.10;99.90;;;;;;5064591;28;20470;-69
2023/01/04 12:36:16;;;;;;;5.30;0.60;;;12.10;99.90;;;;;;5068827;28;20032;-70
2023/01/04 12:38:51;;;;;;;3.15;0.50;;;12.20;99.90;;;;;;5064427;28;20193;-70
2023/01/04 12:41:21;;;;;;;4.43;0.60;;;12.10;99.90;;;;;;5062569;28;20150;-68
2023/01/04 12:43:48;;;;;;;4.30;0.73;;;12.20;99.90;;;;;;5084495;28;20133;-69
2023/01/04 12:49:25;;;;;;;5.15;0.70;;;12.20;99.90;;;;;;5062987;28;20040;-69
2023/01/04 12:52:08;;;;;;;4.10;0.98;;;12.10;99.90;;;;;;5077262;28;20053;-69
2023/01/04 12:54:43;;;;;;;6.68;0.77;;;12.20;99.90;;;;;;5067601;28;20052;-69
2023/01/04 12:57:15;;;;;;;5.10;1.15;;;12.10;99.90;;;;;;5063794;28;20147;-69
2023/01/04 13:00:04;;;;;;;9.77;1.60;;;12.10;99.90;;;;;;5050699;28;20101;-69
2023/01/04 13:02:43;;;;;;;9.40;1.70;;;12.10;99.90;;;;;;5061001;28;20658;-69
2023/01/04 13:05:18;;;;;;;10.35;1.85;;;12.10;99.90;;;;;;5066989;28;20106;-69
2023/01/04 13:07:54;;;;;;;13.27;2.42;;;12.10;99.90;;;;;;5057610;28;20040;-69
2023/01/04 13:10:55;;;;;;;16.85;2.55;;;12.10;99.90;;;;;;5065605;28;20140;-69
2023/01/04 13:13:50;;;;;;;15.07;2.35;;;12.10;99.90;;;;;;5037210;28;20044;-69
2023/01/04 13:16:34;;;;;;;11.68;2.55;;;12.10;99.90;;;;;;5067553;28;20400;-69
2023/01/04 13:19:02;;;;;;;17.40;2.20;;;12.00;99.90;;;;;;5061294;28;20124;-69
2023/01/04 13:21:32;;;;;;;14.27;2.58;;;12.00;99.90;;;;;;5062224;28;20295;-69
2023/01/04 13:24:31;;;;;;;14.40;2.40;;;12.00;99.90;;;;;;5050454;28;20039;-69
2023/01/04 13:27:09;;;;;;;16.88;2.80;;;12.00;99.90;;;;;;5069749;28;20079;-70
2023/01/04 13:29:35;;;;;;;18.40;2.65;;;12.00;99.90;;;;;;5070816;28;20076;-70
2023/01/04 13:32:10;;;;;;;17.80;2.72;;;12.00;99.90;;;;;;5065708;28;20610;-70
2023/01/04 13:34:54;;;;;;;17.73;2.95;;;12.00;99.90;;;;;;5080820;28;20477;-70
2023/01/04 13:37:27;;;;;;;20.65;3.78;;;11.90;99.90;;;;;;5061710;28;20036;-70
2023/01/04 13:40:27;;;;;;;14.98;2.95;;;11.90;99.90;;;;;;5047380;28;20051;-69
2023/01/04 13:43:05;;;;;;;19.52;2.97;;;12.00;99.90;;;;;;5078691;28;20496;-70
2023/01/04 13:45:49;;;;;;;15.10;2.80;;;11.90;99.90;;;;;;5079739;28;20165;-70
2023/01/04 13:48:18;;;;;;;17.05;3.20;;;11.90;99.90;;;;;;5061498;28;20040;-70
2023/01/04 13:50:58;;;;;;;17.48;2.70;;;11.90;99.90;;;;;;5062787;28;20284;-70
2023/01/04 13:53:26;;;;;;;17.60;2.90;;;11.90;99.90;;;;;;5061976;28;20102;-69
2023/01/04 13:55:55;;;;;;;16.88;2.88;;;11.90;99.90;;;;;;5064678;28;20079;-69
2023/01/04 13:58:23;;;;;;;16.70;3.03;;;11.90;99.90;;;;;;5068224;28;20063;-69
2023/01/04 14:01:11;;;;;;;16.65;3.15;;;11.80;99.90;;;;;;5065319;28;20044;-70
2023/01/04 14:03:54;;;;;;;21.30;4.15;;;11.90;99.90;;;;;;5059105;28;20045;-69